Latest Coastal Weather Observations for Gannett Cay

IDQ60701

Issued at 10:05 am EST Monday 22 September 2014 (issued every 10 minutes, with the page automatically refreshed every 10 minutes)

About coastal observations | Map of coastal stations | Coastal observations for QLD | Marine services | Other Formats
Station Details ID: 200831 Name: GANNET CAY Lat: -21.98 Lon: 152.47 Height: 2.3 m
Data from the previous 72 hours. | See also: Recent months for locations in Queensland
Date/Time
EST
Temp

°C
Wind Pressure Rain
since 9am
mm
Weather Cloud Vis
km
Sea
Height
m
Swell
Dir
 
Speed
knots
Gust
knots
hPa Trend Height
m
Period
s
Dir
22/10:00am 22.1 E 25 28 1020.8 - - - - - - - - -
22/09:30am 22.2 E 25 28 1020.7 - - - - - - - - -
22/09:26am 22.0 E 24 - 1020.7 - - - - - - - - -
22/09:00am 21.9 E 24 29 1020.6 - - - - - - - - -
22/08:30am 22.0 E 25 30 1020.6 - - - - - - - - -
22/08:26am 22.0 E 25 - 1020.6 - - - - - - - - -
22/08:00am 21.9 E 23 27 1020.4 - - - - - - - - -
22/07:30am 22.0 ENE 23 26 1020.4 - - - - - - - - -
22/07:26am 22.0 E 22 - 1020.4 - - - - - - - - -
22/07:00am 21.9 E 24 28 1019.8 - - - - - - - - -
22/06:30am 21.8 E 24 29 1019.5 - - - - - - - - -
22/06:26am 21.8 E 25 - 1019.6 - - - - - - - - -
22/06:00am 21.8 E 25 28 1019.0 - - - - - - - - -
22/05:30am 21.8 E 23 26 1018.8 - - - - - - - - -
22/05:26am 21.9 ENE 24 - 1018.9 - - - - - - - - -
22/05:00am 21.9 E 24 28 1018.5 - - - - - - - - -
22/04:30am 21.7 E 23 26 1018.4 - - - - - - - - -
22/04:26am 21.7 E 24 - 1018.5 - - - - - - - - -
22/04:00am 21.7 E 23 26 1018.5 - - - - - - - - -
22/03:30am 21.9 E 22 27 1018.7 - - - - - - - - -
22/03:26am 21.8 E 23 - 1018.8 - - - - - - - - -
22/03:00am 21.8 E 24 29 1018.5 - - - - - - - - -
22/02:30am 21.6 E 25 28 1018.5 - - - - - - - - -
22/02:26am 21.7 E 25 - 1018.8 - - - - - - - - -
22/02:00am 21.8 E 24 28 1019.2 - - - - - - - - -
22/01:30am 21.9 E 24 28 1019.5 - - - - - - - - -
22/01:26am 21.9 E 25 - 1019.7 - - - - - - - - -
22/01:00am 21.8 E 23 27 1019.9 - - - - - - - - -
22/12:30am 21.8 E 24 27 1020.2 - - - - - - - - -
22/12:26am 21.8 E 23 - 1020.3 - - - - - - - - -
22/12:00am 21.8 E 24 29 1020.6 - - - - - - - - -
 
Date/Time
EST
Temp

°C
Wind Pressure Rain
since 9am
mm
Weather Cloud Vis
km
Sea
Height
m
Swell
Dir
 
Speed
knots
Gust
knots
hPa Trend Height
m
Period
s
Dir
21/11:30pm 21.9 E 25 28 1020.9 - - - - - - - - -
21/11:26pm 21.8 E 24 - 1021.1 - - - - - - - - -
21/11:00pm 21.9 E 26 30 1021.1 - - - - - - - - -
21/10:30pm 21.9 E 26 30 1020.9 - - - - - - - - -
21/10:26pm 21.9 E 25 - 1021.0 - - - - - - - - -
21/10:00pm 22.1 E 24 27 1021.2 - - - - - - - - -
21/09:30pm 22.1 E 19 22 1021.1 - - - - - - - - -
21/09:26pm 22.1 E 19 - 1021.2 - - - - - - - - -
21/09:00pm 22.0 E 20 23 1021.0 - - - - - - - - -
21/08:30pm 22.1 E 20 23 1020.8 - - - - - - - - -
21/08:26pm 22.1 E 20 - 1021.0 - - - - - - - - -
21/08:00pm 22.0 E 21 25 1020.8 - - - - - - - - -
21/07:30pm 22.0 E 23 26 1020.7 - - - - - - - - -
21/07:26pm 22.0 E 24 - 1020.8 - - - - - - - - -
21/07:00pm 22.0 E 24 28 1020.3 - - - - - - - - -
21/06:30pm 22.0 E 22 25 1020.2 - - - - - - - - -
21/06:26pm 22.0 E 22 - 1020.3 - - - - - - - - -
21/06:00pm 22.0 E 22 25 1019.9 - - - - - - - - -
21/05:30pm 22.0 E 23 26 1019.7 - - - - - - - - -
21/05:26pm 22.0 E 23 - 1019.7 - - - - - - - - -
21/05:00pm 22.0 E 23 26 1019.1 - - - - - - - - -
21/04:30pm 22.2 E 23 27 1019.2 - - - - - - - - -
21/04:26pm 22.2 E 23 - 1019.2 - - - - - - - - -
21/04:00pm 22.1 E 23 27 1018.9 - - - - - - - - -
21/03:30pm 22.1 E 23 26 1018.9 - - - - - - - - -
21/03:26pm 22.1 E 23 - 1019.0 - - - - - - - - -
21/03:00pm 22.1 E 22 26 1018.8 - - - - - - - - -
21/02:30pm 22.2 E 23 26 1018.9 - - - - - - - - -
21/02:26pm 22.3 E 23 - 1019.1 - - - - - - - - -
21/02:00pm 22.2 E 24 27 1019.2 - - - - - - - - -
21/01:30pm 22.3 E 21 25 1019.4 - - - - - - - - -
21/01:26pm 22.2 E 21 - 1019.7 - - - - - - - - -
21/01:00pm 22.4 E 22 25 1019.8 - - - - - - - - -
21/12:30pm 22.4 E 22 25 1020.0 - - - - - - - - -
21/12:26pm 22.3 E 22 - 1020.1 - - - - - - - - -
21/12:00pm 22.3 E 23 27 1020.2 - - - - - - - - -
21/11:30am 22.2 E 21 25 1020.4 - - - - - - - - -
21/11:26am 22.3 E 21 - 1020.5 - - - - - - - - -
21/11:00am 22.2 E 22 25 1020.9 - - - - - - - - -
21/10:30am 22.2 E 21 25 1021.1 - - - - - - - - -
21/10:26am 22.1 E 22 - 1021.2 - - - - - - - - -
21/10:00am 22.1 E 23 25 1021.2 - - - - - - - - -
21/09:30am 22.1 E 22 26 1021.3 - - - - - - - - -
21/09:26am 22.2 E 22 - 1021.6 - - - - - - - - -
21/09:00am 22.0 E 22 26 1021.5 - - - - - - - - -
21/08:30am 21.9 E 22 25 1021.3 - - - - - - - - -
21/08:26am 21.9 E 22 - 1021.3 - - - - - - - - -
21/08:00am 21.9 E 23 25 1021.3 - - - - - - - - -
21/07:30am 22.0 E 21 25 1020.9 - - - - - - - - -
21/07:26am 21.9 E 21 - 1020.9 - - - - - - - - -
21/07:00am 21.8 E 21 25 1020.7 - - - - - - - - -
21/06:30am 21.6 E 20 23 1020.3 - - - - - - - - -
21/06:26am 21.6 E 21 - 1020.4 - - - - - - - - -
21/06:00am 21.4 E 20 24 1019.6 - - - - - - - - -
21/05:30am 21.4 E 20 22 1019.3 - - - - - - - - -
21/05:26am 21.5 E 19 - 1019.3 - - - - - - - - -
21/05:00am 21.4 E 21 23 1018.9 - - - - - - - - -
21/04:30am 21.4 E 19 22 1018.6 - - - - - - - - -
21/04:26am 21.4 E 20 - 1018.7 - - - - - - - - -
21/04:00am 21.4 E 20 22 1018.3 - - - - - - - - -
21/03:30am 21.3 E 19 22 1018.2 - - - - - - - - -
21/03:26am 21.5 E 19 - 1018.3 - - - - - - - - -
21/03:00am 21.5 E 19 21 1018.2 - - - - - - - - -
21/02:30am 21.5 E 18 21 1018.3 - - - - - - - - -
21/02:26am 21.4 E 18 - 1018.5 - - - - - - - - -
21/02:00am 21.6 E 18 20 1018.7 - - - - - - - - -
21/01:30am 21.6 E 17 20 1018.9 - - - - - - - - -
21/01:26am 21.6 E 18 - 1019.1 - - - - - - - - -
21/01:00am 21.5 E 20 23 1018.8 - - - - - - - - -
21/12:30am 21.7 ENE 21 23 1019.2 - - - - - - - - -
21/12:26am 21.7 ENE 20 - 1019.3 - - - - - - - - -
21/12:00am 21.8 ENE 21 23 1019.3 - - - - - - - - -
 
Date/Time
EST
Temp

°C
Wind Pressure Rain
since 9am
mm
Weather Cloud Vis
km
Sea
Height
m
Swell
Dir
 
Speed
knots
Gust
knots
hPa Trend Height
m
Period
s
Dir
20/11:30pm 21.8 ENE 19 22 1019.5 - - - - - - - - -
20/11:26pm 21.9 ENE 20 - 1019.7 - - - - - - - - -
20/11:00pm 21.8 ENE 19 22 1019.6 - - - - - - - - -
20/10:30pm 21.8 ENE 19 22 1019.9 - - - - - - - - -
20/10:26pm 21.9 ENE 19 - 1020.1 - - - - - - - - -
20/10:00pm 21.8 ENE 19 21 1020.1 - - - - - - - - -
20/09:30pm 21.9 E 18 20 1020.0 - - - - - - - - -
20/09:26pm 21.9 E 17 - 1020.1 - - - - - - - - -
20/09:00pm 22.0 E 18 20 1020.0 - - - - - - - - -
20/08:30pm 21.9 E 18 21 1019.8 - - - - - - - - -
20/08:26pm 22.0 E 18 - 1019.8 - - - - - - - - -
20/08:00pm 21.9 E 18 21 1019.4 - - - - - - - - -
20/07:30pm 22.1 E 17 20 1019.1 - - - - - - - - -
20/07:26pm 22.0 E 17 - 1019.2 - - - - - - - - -
20/07:00pm 22.1 E 17 19 1018.8 - - - - - - - - -
20/06:30pm 22.0 E 17 19 1018.4 - - - - - - - - -
20/06:26pm 22.0 E 17 - 1018.5 - - - - - - - - -
20/06:00pm 22.0 E 16 18 1018.0 - - - - - - - - -
20/05:30pm 22.1 E 16 18 1017.3 - - - - - - - - -
20/05:26pm 22.0 E 16 - 1017.4 - - - - - - - - -
20/05:00pm 22.2 E 15 17 1017.0 - - - - - - - - -
20/04:30pm 22.3 E 15 17 1016.5 - - - - - - - - -
20/04:26pm 22.3 E 15 - 1016.6 - - - - - - - - -
20/04:00pm 22.5 ESE 14 16 1016.3 - - - - - - - - -
20/03:30pm 22.6 ESE 14 15 1016.2 - - - - - - - - -
20/03:26pm 22.8 ESE 13 - 1016.4 - - - - - - - - -
20/03:00pm 22.7 ESE 13 15 1016.3 - - - - - - - - -
20/02:30pm 23.1 ESE 12 14 1016.4 - - - - - - - - -
20/02:26pm 22.9 ESE 13 - 1016.6 - - - - - - - - -
20/02:00pm 23.1 E 11 13 1016.8 - - - - - - - - -
20/01:30pm 23.2 SE 8 9 1017.1 - - - - - - - - -
20/01:26pm 23.3 SE 8 - 1017.3 - - - - - - - - -
20/01:00pm 23.2 SE 9 11 1017.5 - - - - - - - - -
20/12:30pm 23.3 SE 8 9 1017.8 - - - - - - - - -
20/12:26pm 23.3 SE 8 - 1017.9 - - - - - - - - -
20/12:00pm 23.3 SE 7 9 1018.2 - - - - - - - - -
20/11:30am 23.4 SE 7 8 1018.7 - - - - - - - - -
20/11:26am 23.2 SE 8 - 1018.9 - - - - - - - - -
20/11:00am 23.3 SE 7 8 1019.1 - - - - - - - - -
20/10:30am 23.2 SE 7 8 1019.2 - - - - - - - - -
20/10:26am 23.1 SE 7 - 1019.3 - - - - - - - - -
20/10:00am 22.9 ESE 7 8 1019.4 - - - - - - - - -
20/09:30am 23.0 ESE 6 8 1019.5 - - - - - - - - -
20/09:26am 23.0 ESE 7 - 1019.6 - - - - - - - - -
20/09:00am 22.9 E 7 9 1019.3 - - - - - - - - -
20/08:30am 22.7 E 7 8 1019.0 - - - - - - - - -
20/08:26am 22.7 E 7 - 1019.0 - - - - - - - - -
20/08:00am 22.4 ENE 7 9 1018.7 - - - - - - - - -
20/07:30am 22.3 NE 8 9 1018.4 - - - - - - - - -
20/07:26am 22.2 NE 8 - 1018.4 - - - - - - - - -
20/07:00am 22.3 NE 9 11 1017.9 - - - - - - - - -
20/06:30am 22.1 NE 9 10 1017.6 - - - - - - - - -
20/06:26am 22.2 NE 9 - 1017.6 - - - - - - - - -
20/06:00am 21.9 NE 10 12 1017.3 - - - - - - - - -
20/05:30am 21.8 NE 11 13 1016.8 - - - - - - - - -
20/05:26am 21.8 NE 11 - 1016.9 - - - - - - - - -
20/05:00am 21.9 NE 12 14 1016.4 - - - - - - - - -
20/04:30am 22.0 NE 12 14 1016.0 - - - - - - - - -
20/04:26am 21.8 NE 13 - 1016.0 - - - - - - - - -
20/04:00am 21.8 NE 13 16 1015.9 - - - - - - - - -
20/03:30am 21.8 NE 14 16 1015.8 - - - - - - - - -
20/03:26am 21.9 NE 15 - 1015.9 - - - - - - - - -
20/03:00am 21.8 NE 13 15 1016.1 - - - - - - - - -
20/02:30am 21.9 NE 14 17 1016.2 - - - - - - - - -
20/02:26am 21.8 NE 14 - 1016.3 - - - - - - - - -
20/02:00am 22.0 NE 14 15 1016.6 - - - - - - - - -
20/01:30am 22.0 NE 13 16 1017.2 - - - - - - - - -
20/01:26am 22.0 NE 14 - 1017.3 - - - - - - - - -
20/01:00am 22.0 NE 14 17 1017.4 - - - - - - - - -
20/12:30am 22.1 NE 14 16 1017.8 - - - - - - - - -
20/12:26am 22.1 NE 14 - 1018.0 - - - - - - - - -
20/12:00am 22.2 NE 15 17 1018.1 - - - - - - - - -
 
Date/Time
EST
Temp

°C
Wind Pressure Rain
since 9am
mm
Weather Cloud Vis
km
Sea
Height
m
Swell
Dir
 
Speed
knots
Gust
knots
hPa Trend Height
m
Period
s
Dir
19/11:30pm 22.2 NE 16 19 1018.2 - - - - - - - - -
19/11:26pm 22.1 NE 17 - 1018.3 - - - - - - - - -
19/11:00pm 22.2 NE 17 20 1018.3 - - - - - - - - -
19/10:30pm 22.2 ENE 17 19 1018.5 - - - - - - - - -
19/10:26pm 22.2 ENE 17 - 1018.6 - - - - - - - - -
19/10:00pm 22.4 ENE 17 19 1018.6 - - - - - - - - -
19/09:30pm 22.5 ENE 16 17 1018.8 - - - - - - - - -
19/09:26pm 22.5 ENE 15 - 1018.9 - - - - - - - - -
19/09:00pm 22.5 E 15 18 1018.7 - - - - - - - - -
19/08:30pm 22.5 E 14 16 1018.9 - - - - - - - - -
19/08:26pm 22.3 E 13 - 1018.9 - - - - - - - - -
19/08:00pm 22.4 E 13 15 1018.7 - - - - - - - - -
19/07:30pm 22.3 ESE 13 14 1018.5 - - - - - - - - -
19/07:26pm 22.2 ESE 13 - 1018.5 - - - - - - - - -
19/07:00pm 22.3 ESE 13 16 1018.4 - - - - - - - - -
19/06:30pm 22.2 ESE 13 14 1017.8 - - - - - - - - -
19/06:26pm 22.3 ESE 13 - 1018.0 - - - - - - - - -
19/06:00pm 22.3 ESE 13 15 1017.6 - - - - - - - - -
19/05:30pm 22.5 ESE 13 16 1017.3 - - - - - - - - -
19/05:26pm 22.5 ESE 13 - 1017.3 - - - - - - - - -
19/05:00pm 22.6 ESE 12 14 1016.9 - - - - - - - - -
19/04:30pm 22.8 ESE 12 14 1016.5 - - - - - - - - -
19/04:26pm 23.0 ESE 12 - 1016.5 - - - - - - - - -
19/04:00pm 22.9 ESE 11 14 1016.4 - - - - - - - - -
19/03:30pm 22.9 ESE 11 13 1016.2 - - - - - - - - -
19/03:26pm 23.2 ESE 11 - 1016.2 - - - - - - - - -
19/03:00pm 23.1 ESE 11 13 1016.0 - - - - - - - - -
19/02:30pm 23.2 ESE 11 13 1016.1 - - - - - - - - -
19/02:26pm 23.2 ESE 11 - 1016.2 - - - - - - - - -
19/02:00pm 23.3 ESE 11 13 1016.4 - - - - - - - - -
19/01:30pm 23.0 ESE 12 13 1016.8 - - - - - - - - -
19/01:26pm 23.0 ESE 12 - 1017.0 - - - - - - - - -
19/01:00pm 23.1 ESE 11 13 1017.2 - - - - - - - - -
19/12:30pm 23.2 ESE 10 11 1017.9 - - - - - - - - -
19/12:26pm 23.2 ESE 10 - 1018.1 - - - - - - - - -
19/12:00pm 23.1 ESE 10 11 1018.3 - - - - - - - - -
19/11:30am 23.2 ESE 10 11 1018.7 - - - - - - - - -
19/11:26am 23.2 ESE 10 - 1018.8 - - - - - - - - -
19/11:00am 23.2 E 9 11 1019.1 - - - - - - - - -
19/10:30am 22.9 E 10 11 1019.5 - - - - - - - - -
19/10:26am 23.0 E 10 - 1019.6 - - - - - - - - -

Other Formats:

Comma delimited format used in spreadsheet applications
http://www.bom.gov.au/fwo/IDQ60701/IDQ60701.94379.axf

JavaScript Object Notation format (JSON) in row-major order
http://www.bom.gov.au/fwo/IDQ60701/IDQ60701.94379.json